sensor_id;sensor_type;location;lat;lon;timestamp;pressure;altitude;pressure_sealevel;temperature;humidity
13705;BME280;6924;52.122;9.952;2023-09-19T00:01:57;99590.34;;;16.76;100.00
13705;BME280;6924;52.122;9.952;2023-09-19T00:04:25;99587.84;;;16.74;100.00
13705;BME280;6924;52.122;9.952;2023-09-19T00:06:54;99586.16;;;16.69;100.00
13705;BME280;6924;52.122;9.952;2023-09-19T00:09:21;99587.34;;;16.68;100.00
13705;BME280;6924;52.122;9.952;2023-09-19T00:11:51;99584.00;;;16.63;100.00
13705;BME280;6924;52.122;9.952;2023-09-19T00:14:18;99589.94;;;16.54;100.00
13705;BME280;6924;52.122;9.952;2023-09-19T00:16:44;99595.13;;;16.48;100.00
13705;BME280;6924;52.122;9.952;2023-09-19T00:19:11;99603.47;;;16.38;100.00
13705;BME280;6924;52.122;9.952;2023-09-19T00:21:40;99602.78;;;16.44;100.00
13705;BME280;6924;52.122;9.952;2023-09-19T00:24:07;99611.66;;;16.39;100.00
13705;BME280;6924;52.122;9.952;2023-09-19T00:26:34;99619.88;;;16.41;100.00
13705;BME280;6924;52.122;9.952;2023-09-19T00:29:00;99621.81;;;16.37;100.00
13705;BME280;6924;52.122;9.952;2023-09-19T00:31:33;99622.31;;;16.42;100.00
13705;BME280;6924;52.122;9.952;2023-09-19T00:34:02;99623.22;;;16.46;100.00
13705;BME280;6924;52.122;9.952;2023-09-19T00:36:35;99620.59;;;16.38;100.00
13705;BME280;6924;52.122;9.952;2023-09-19T00:39:05;99622.94;;;16.32;100.00
13705;BME280;6924;52.122;9.952;2023-09-19T00:41:33;99623.69;;;16.29;100.00
13705;BME280;6924;52.122;9.952;2023-09-19T00:44:01;99626.03;;;16.23;100.00
13705;BME280;6924;52.122;9.952;2023-09-19T00:46:29;99623.03;;;16.16;100.00
13705;BME280;6924;52.122;9.952;2023-09-19T00:48:56;99627.22;;;16.22;100.00
13705;BME280;6924;52.122;9.952;2023-09-19T00:51:23;99629.56;;;16.17;100.00
13705;BME280;6924;52.122;9.952;2023-09-19T00:53:51;99630.47;;;16.21;100.00
13705;BME280;6924;52.122;9.952;2023-09-19T00:56:19;99634.72;;;16.30;100.00
13705;BME280;6924;52.122;9.952;2023-09-19T00:58:46;99630.00;;;16.19;100.00
13705;BME280;6924;52.122;9.952;2023-09-19T01:01:13;99638.41;;;16.31;100.00
13705;BME280;6924;52.122;9.952;2023-09-19T01:03:40;99629.34;;;16.25;100.00
13705;BME280;6924;52.122;9.952;2023-09-19T01:06:07;99630.53;;;16.24;100.00
13705;BME280;6924;52.122;9.952;2023-09-19T01:08:34;99634.81;;;16.34;100.00
13705;BME280;6924;52.122;9.952;2023-09-19T01:11:09;99628.78;;;16.39;100.00
13705;BME280;6924;52.122;9.952;2023-09-19T01:13:49;99635.63;;;16.35;100.00
13705;BME280;6924;52.122;9.952;2023-09-19T01:16:28;99636.13;;;16.40;100.00
13705;BME280;6924;52.122;9.952;2023-09-19T01:19:10;99642.84;;;16.48;100.00
13705;BME280;6924;52.122;9.952;2023-09-19T01:21:46;99648.69;;;16.36;100.00
13705;BME280;6924;52.122;9.952;2023-09-19T01:27:42;99664.31;;;16.42;100.00
13705;BME280;6924;52.122;9.952;2023-09-19T01:30:18;99652.06;;;16.41;100.00
13705;BME280;6924;52.122;9.952;2023-09-19T01:32:47;99657.78;;;16.41;100.00
13705;BME280;6924;52.122;9.952;2023-09-19T01:35:17;99652.53;;;16.43;100.00
13705;BME280;6924;52.122;9.952;2023-09-19T01:37:44;99658.69;;;16.45;100.00
13705;BME280;6924;52.122;9.952;2023-09-19T01:40:13;99663.63;;;16.48;100.00
13705;BME280;6924;52.122;9.952;2023-09-19T01:42:44;99665.22;;;16.46;100.00
13705;BME280;6924;52.122;9.952;2023-09-19T01:45:16;99658.69;;;16.45;100.00
13705;BME280;6924;52.122;9.952;2023-09-19T01:47:49;99664.31;;;16.42;100.00
13705;BME280;6924;52.122;9.952;2023-09-19T01:50:22;99667.97;;;16.42;100.00
13705;BME280;6924;52.122;9.952;2023-09-19T01:52:57;99664.75;;;16.44;100.00
13705;BME280;6924;52.122;9.952;2023-09-19T01:55:27;99683.09;;;16.43;100.00
13705;BME280;6924;52.122;9.952;2023-09-19T01:58:01;99683.09;;;16.43;100.00
13705;BME280;6924;52.122;9.952;2023-09-19T02:00:32;99678.22;;;16.43;100.00
13705;BME280;6924;52.122;9.952;2023-09-19T02:03:00;99675.03;;;16.48;100.00
13705;BME280;6924;52.122;9.952;2023-09-19T02:05:28;99674.91;;;16.41;100.00
13705;BME280;6924;52.122;9.952;2023-09-19T02:07:55;99684.38;;;16.45;100.00
13705;BME280;6924;52.122;9.952;2023-09-19T02:10:23;99685.88;;;16.39;100.00
13705;BME280;6924;52.122;9.952;2023-09-19T02:12:50;99687.09;;;16.38;100.00
13705;BME280;6924;52.122;9.952;2023-09-19T02:15:17;99681.06;;;16.43;100.00
13705;BME280;6924;52.122;9.952;2023-09-19T02:17:45;99684.75;;;16.44;100.00
13705;BME280;6924;52.122;9.952;2023-09-19T02:20:12;99693.97;;;16.37;100.00
13705;BME280;6924;52.122;9.952;2023-09-19T02:22:40;99690.38;;;16.40;100.00
13705;BME280;6924;52.122;9.952;2023-09-19T02:25:07;99694.06;;;16.41;100.00
13705;BME280;6924;52.122;9.952;2023-09-19T02:27:34;99702.53;;;16.37;100.00
13705;BME280;6924;52.122;9.952;2023-09-19T02:30:01;99703.56;;;16.29;100.00
13705;BME280;6924;52.122;9.952;2023-09-19T02:32:29;99697.50;;;16.30;100.00
13705;BME280;6924;52.122;9.952;2023-09-19T02:34:57;99704.03;;;16.31;100.00
13705;BME280;6924;52.122;9.952;2023-09-19T02:37:24;99716.00;;;16.37;100.00
13705;BME280;6924;52.122;9.952;2023-09-19T02:39:51;99715.09;;;16.32;100.00
13705;BME280;6924;52.122;9.952;2023-09-19T02:42:17;99710.66;;;16.35;100.00
13705;BME280;6924;52.122;9.952;2023-09-19T02:44:46;99716.91;;;16.41;100.00
13705;BME280;6924;52.122;9.952;2023-09-19T02:47:13;99712.31;;;16.36;100.00
13705;BME280;6924;52.122;9.952;2023-09-19T02:49:40;99720.13;;;16.39;100.00
13705;BME280;6924;52.122;9.952;2023-09-19T02:52:09;99721.75;;;16.40;100.00
13705;BME280;6924;52.122;9.952;2023-09-19T02:54:36;99725.16;;;16.46;100.00
13705;BME280;6924;52.122;9.952;2023-09-19T02:57:03;99716.28;;;16.31;100.00
13705;BME280;6924;52.122;9.952;2023-09-19T02:59:31;99728.97;;;16.34;100.00
13705;BME280;6924;52.122;9.952;2023-09-19T03:01:58;99725.28;;;16.33;100.00
13705;BME280;6924;52.122;9.952;2023-09-19T03:04:25;99721.56;;;16.29;100.00
13705;BME280;6924;52.122;9.952;2023-09-19T03:06:53;99717.41;;;16.27;100.00
13705;BME280;6924;52.122;9.952;2023-09-19T03:09:25;99726.94;;;16.35;100.00
13705;BME280;6924;52.122;9.952;2023-09-19T03:11:51;99722.81;;;16.32;100.00
13705;BME280;6924;52.122;9.952;2023-09-19T03:14:19;99717.03;;;16.28;98.96
13705;BME280;6924;52.122;9.952;2023-09-19T03:16:46;99716.06;;;16.21;99.02
13705;BME280;6924;52.122;9.952;2023-09-19T03:19:12;99713.66;;;16.23;98.56
13705;BME280;6924;52.122;9.952;2023-09-19T03:21:40;99712.44;;;16.24;98.72
13705;BME280;6924;52.122;9.952;2023-09-19T03:24:06;99714.47;;;16.23;98.45
13705;BME280;6924;52.122;9.952;2023-09-19T03:26:35;99722.03;;;16.16;97.78
13705;BME280;6924;52.122;9.952;2023-09-19T03:29:03;99730.53;;;16.12;96.90
13705;BME280;6924;52.122;9.952;2023-09-19T03:31:33;99710.94;;;16.10;97.14
13705;BME280;6924;52.122;9.952;2023-09-19T03:34:02;99727.59;;;16.08;97.44
13705;BME280;6924;52.122;9.952;2023-09-19T03:36:29;99721.28;;;15.99;97.31
13705;BME280;6924;52.122;9.952;2023-09-19T03:38:55;99728.00;;;15.91;97.51
13705;BME280;6924;52.122;9.952;2023-09-19T03:41:22;99729.28;;;15.94;97.51
13705;BME280;6924;52.122;9.952;2023-09-19T03:43:49;99731.22;;;15.89;96.84
13705;BME280;6924;52.122;9.952;2023-09-19T03:46:16;99733.25;;;15.89;96.30
13705;BME280;6924;52.122;9.952;2023-09-19T03:48:42;99729.94;;;15.87;96.22
13705;BME280;6924;52.122;9.952;2023-09-19T03:51:09;99727.38;;;15.82;96.49
13705;BME280;6924;52.122;9.952;2023-09-19T03:53:36;99739.25;;;15.84;96.42
13705;BME280;6924;52.122;9.952;2023-09-19T03:56:02;99740.81;;;15.81;96.59
13705;BME280;6924;52.122;9.952;2023-09-19T03:58:29;99749.44;;;15.85;96.36
13705;BME280;6924;52.122;9.952;2023-09-19T04:00:57;99745.41;;;15.86;96.03
13705;BME280;6924;52.122;9.952;2023-09-19T04:03:24;99748.72;;;15.88;96.23
13705;BME280;6924;52.122;9.952;2023-09-19T04:05:59;99751.19;;;15.89;96.52
13705;BME280;6924;52.122;9.952;2023-09-19T04:08:26;99756.88;;;15.89;96.89
13705;BME280;6924;52.122;9.952;2023-09-19T04:10:52;99765.91;;;15.91;96.68
13705;BME280;6924;52.122;9.952;2023-09-19T04:13:19;99766.75;;;15.92;97.14
13705;BME280;6924;52.122;9.952;2023-09-19T04:15:45;99762.22;;;15.91;97.14
13705;BME280;6924;52.122;9.952;2023-09-19T04:18:13;99766.34;;;15.94;97.55
13705;BME280;6924;52.122;9.952;2023-09-19T04:20:40;99762.69;;;15.93;97.40
13705;BME280;6924;52.122;9.952;2023-09-19T04:23:06;99777.84;;;15.97;97.76
13705;BME280;6924;52.122;9.952;2023-09-19T04:25:33;99768.47;;;15.97;96.73
13705;BME280;6924;52.122;9.952;2023-09-19T04:28:00;99779.88;;;15.97;96.66
13705;BME280;6924;52.122;9.952;2023-09-19T04:30:26;99778.88;;;15.89;95.59
13705;BME280;6924;52.122;9.952;2023-09-19T04:32:53;99773.16;;;15.89;95.17
13705;BME280;6924;52.122;9.952;2023-09-19T04:35:21;99775.56;;;15.87;95.74
13705;BME280;6924;52.122;9.952;2023-09-19T04:37:47;99780.63;;;15.78;96.26
13705;BME280;6924;52.122;9.952;2023-09-19T04:40:14;99779.81;;;15.77;95.73
13705;BME280;6924;52.122;9.952;2023-09-19T04:42:42;99790.47;;;15.80;96.28
13705;BME280;6924;52.122;9.952;2023-09-19T04:45:10;99786.06;;;15.83;96.57
13705;BME280;6924;52.122;9.952;2023-09-19T04:47:37;99786.50;;;15.69;96.01
13705;BME280;6924;52.122;9.952;2023-09-19T04:50:06;99789.53;;;15.60;95.67
13705;BME280;6924;52.122;9.952;2023-09-19T04:52:34;99802.69;;;15.65;95.52
13705;BME280;6924;52.122;9.952;2023-09-19T04:55:01;99795.06;;;15.53;95.70
13705;BME280;6924;52.122;9.952;2023-09-19T04:57:29;99804.72;;;15.48;96.49
13705;BME280;6924;52.122;9.952;2023-09-19T04:59:56;99793.31;;;15.48;96.80
13705;BME280;6924;52.122;9.952;2023-09-19T05:02:23;99806.09;;;15.55;97.09
13705;BME280;6924;52.122;9.952;2023-09-19T05:04:50;99811.78;;;15.55;96.41
13705;BME280;6924;52.122;9.952;2023-09-19T05:07:17;99815.38;;;15.52;95.06
13705;BME280;6924;52.122;9.952;2023-09-19T05:09:45;99817.75;;;15.49;94.43
13705;BME280;6924;52.122;9.952;2023-09-19T05:12:12;99823.09;;;15.51;93.87
13705;BME280;6924;52.122;9.952;2023-09-19T05:14:38;99829.06;;;15.46;94.75
13705;BME280;6924;52.122;9.952;2023-09-19T05:17:05;99824.09;;;15.43;94.05
13705;BME280;6924;52.122;9.952;2023-09-19T05:19:33;99823.25;;;15.42;94.35
13705;BME280;6924;52.122;9.952;2023-09-19T05:22:00;99822.44;;;15.42;94.48
13705;BME280;6924;52.122;9.952;2023-09-19T05:24:26;99830.53;;;15.40;94.04
13705;BME280;6924;52.122;9.952;2023-09-19T05:26:54;99835.47;;;15.43;94.82
13705;BME280;6924;52.122;9.952;2023-09-19T05:29:22;99843.50;;;15.37;93.78
13705;BME280;6924;52.122;9.952;2023-09-19T05:31:48;99845.13;;;15.38;93.25
13705;BME280;6924;52.122;9.952;2023-09-19T05:34:16;99851.22;;;15.37;91.83
13705;BME280;6924;52.122;9.952;2023-09-19T05:36:42;99852.03;;;15.37;91.90
13705;BME280;6924;52.122;9.952;2023-09-19T05:39:09;99861.28;;;15.34;93.24
13705;BME280;6924;52.122;9.952;2023-09-19T05:41:35;99876.88;;;15.37;91.63
13705;BME280;6924;52.122;9.952;2023-09-19T05:44:06;99881.16;;;15.31;89.12
13705;BME280;6924;52.122;9.952;2023-09-19T05:46:33;99879.13;;;15.31;88.60
13705;BME280;6924;52.122;9.952;2023-09-19T05:49:00;99874.41;;;15.23;88.33
13705;BME280;6924;52.122;9.952;2023-09-19T05:51:26;99873.41;;;15.15;89.02
13705;BME280;6924;52.122;9.952;2023-09-19T05:53:53;99876.44;;;15.22;89.62
13705;BME280;6924;52.122;9.952;2023-09-19T05:56:20;99880.03;;;15.19;88.31
13705;BME280;6924;52.122;9.952;2023-09-19T05:58:47;99880.59;;;15.25;89.09
13705;BME280;6924;52.122;9.952;2023-09-19T06:01:16;99894.59;;;15.30;88.86
13705;BME280;6924;52.122;9.952;2023-09-19T06:03:43;99895.41;;;15.31;89.28
13705;BME280;6924;52.122;9.952;2023-09-19T06:06:09;99902.03;;;15.35;89.66
13705;BME280;6924;52.122;9.952;2023-09-19T06:08:36;99902.66;;;15.28;89.11
13705;BME280;6924;52.122;9.952;2023-09-19T06:11:02;99901.31;;;15.38;89.82
13705;BME280;6924;52.122;9.952;2023-09-19T06:13:30;99917.66;;;15.41;89.10
13705;BME280;6924;52.122;9.952;2023-09-19T06:15:58;99923.81;;;15.43;89.58
13705;BME280;6924;52.122;9.952;2023-09-19T06:18:26;99919.22;;;15.38;89.58
13705;BME280;6924;52.122;9.952;2023-09-19T06:20:54;99920.03;;;15.39;89.90
13705;BME280;6924;52.122;9.952;2023-09-19T06:23:21;99926.59;;;15.39;90.06
13705;BME280;6924;52.122;9.952;2023-09-19T06:25:48;99928.81;;;15.46;88.32
13705;BME280;6924;52.122;9.952;2023-09-19T06:28:14;99935.50;;;15.38;88.17
13705;BME280;6924;52.122;9.952;2023-09-19T06:30:43;99932.66;;;15.38;88.07
13705;BME280;6924;52.122;9.952;2023-09-19T06:33:10;99929.78;;;15.38;89.42
13705;BME280;6924;52.122;9.952;2023-09-19T06:35:39;99939.38;;;15.45;90.34
13705;BME280;6924;52.122;9.952;2023-09-19T06:38:06;99945.19;;;15.49;89.65
13705;BME280;6924;52.122;9.952;2023-09-19T06:40:33;99938.94;;;15.43;89.48
13705;BME280;6924;52.122;9.952;2023-09-19T06:43:00;99939.28;;;15.42;88.99
13705;BME280;6924;52.122;9.952;2023-09-19T06:45:29;99931.91;;;15.41;89.43
13705;BME280;6924;52.122;9.952;2023-09-19T06:47:57;99927.75;;;15.38;89.06
13705;BME280;6924;52.122;9.952;2023-09-19T06:50:25;99929.44;;;15.39;90.14
13705;BME280;6924;52.122;9.952;2023-09-19T06:52:54;99923.47;;;15.44;90.09
13705;BME280;6924;52.122;9.952;2023-09-19T06:55:22;99918.59;;;15.45;90.40
13705;BME280;6924;52.122;9.952;2023-09-19T06:57:50;99919.41;;;15.45;90.31
13705;BME280;6924;52.122;9.952;2023-09-19T07:00:20;99921.44;;;15.45;89.27
13705;BME280;6924;52.122;9.952;2023-09-19T07:02:55;99926.50;;;15.52;89.74
13705;BME280;6924;52.122;9.952;2023-09-19T07:05:21;99914.47;;;15.58;90.59
13705;BME280;6924;52.122;9.952;2023-09-19T07:07:48;99923.63;;;15.64;90.88
13705;BME280;6924;52.122;9.952;2023-09-19T07:10:16;99923.34;;;15.69;90.18
13705;BME280;6924;52.122;9.952;2023-09-19T07:12:43;99928.09;;;15.77;87.88
13705;BME280;6924;52.122;9.952;2023-09-19T07:15:09;99935.44;;;15.78;88.31
13705;BME280;6924;52.122;9.952;2023-09-19T07:17:36;99937.81;;;15.76;88.05
13705;BME280;6924;52.122;9.952;2023-09-19T07:20:03;99944.38;;;15.77;86.62
13705;BME280;6924;52.122;9.952;2023-09-19T07:22:33;99951.53;;;15.86;87.35
13705;BME280;6924;52.122;9.952;2023-09-19T07:24:59;99952.94;;;15.93;86.79
13705;BME280;6924;52.122;9.952;2023-09-19T07:27:27;99943.56;;;15.92;85.57
13705;BME280;6924;52.122;9.952;2023-09-19T07:29:53;99952.75;;;16.01;85.73
13705;BME280;6924;52.122;9.952;2023-09-19T07:32:20;99952.75;;;16.01;86.29
13705;BME280;6924;52.122;9.952;2023-09-19T07:34:46;99951.31;;;16.07;83.52
13705;BME280;6924;52.122;9.952;2023-09-19T07:37:13;99957.38;;;16.06;84.00
13705;BME280;6924;52.122;9.952;2023-09-19T07:39:41;99970.63;;;16.14;84.95
13705;BME280;6924;52.122;9.952;2023-09-19T07:42:08;99961.03;;;16.06;82.94
13705;BME280;6924;52.122;9.952;2023-09-19T07:44:38;99960.97;;;16.03;83.32
13705;BME280;6924;52.122;9.952;2023-09-19T07:47:04;99983.31;;;16.01;83.23
13705;BME280;6924;52.122;9.952;2023-09-19T07:49:31;99969.13;;;16.04;83.13
13705;BME280;6924;52.122;9.952;2023-09-19T07:51:57;99966.56;;;16.15;83.39
13705;BME280;6924;52.122;9.952;2023-09-19T07:54:24;99985.78;;;16.18;83.33
13705;BME280;6924;52.122;9.952;2023-09-19T07:56:50;99986.25;;;16.20;83.45
13705;BME280;6924;52.122;9.952;2023-09-19T07:59:17;99990.69;;;16.18;82.64
13705;BME280;6924;52.122;9.952;2023-09-19T08:01:45;99998.13;;;16.22;82.96
13705;BME280;6924;52.122;9.952;2023-09-19T08:04:13;99994.09;;;16.23;82.32
13705;BME280;6924;52.122;9.952;2023-09-19T08:06:39;99996.78;;;16.32;83.22
13705;BME280;6924;52.122;9.952;2023-09-19T08:09:06;100006.25;;;16.36;82.69
13705;BME280;6924;52.122;9.952;2023-09-19T08:11:33;99997.72;;;16.36;83.62
13705;BME280;6924;52.122;9.952;2023-09-19T08:13:59;100002.56;;;16.36;83.15
13705;BME280;6924;52.122;9.952;2023-09-19T08:16:26;99988.28;;;16.36;82.96
13705;BME280;6924;52.122;9.952;2023-09-19T08:18:54;99995.56;;;16.33;82.95
13705;BME280;6924;52.122;9.952;2023-09-19T08:21:21;99998.16;;;16.38;82.36
13705;BME280;6924;52.122;9.952;2023-09-19T08:23:48;99988.56;;;16.46;82.50
13705;BME280;6924;52.122;9.952;2023-09-19T08:26:15;100007.84;;;16.49;81.76
13705;BME280;6924;52.122;9.952;2023-09-19T08:28:42;99997.88;;;16.43;82.91
13705;BME280;6924;52.122;9.952;2023-09-19T08:31:09;99998.41;;;16.49;81.48
13705;BME280;6924;52.122;9.952;2023-09-19T08:33:36;99986.09;;;16.61;82.44
13705;BME280;6924;52.122;9.952;2023-09-19T08:36:05;99981.75;;;16.67;80.49
13705;BME280;6924;52.122;9.952;2023-09-19T08:38:35;100000.06;;;16.66;80.52
13705;BME280;6924;52.122;9.952;2023-09-19T08:41:06;99996.09;;;16.70;81.62
13705;BME280;6924;52.122;9.952;2023-09-19T08:43:32;99992.13;;;16.75;80.51
13705;BME280;6924;52.122;9.952;2023-09-19T08:46:08;99999.63;;;16.80;79.64
13705;BME280;6924;52.122;9.952;2023-09-19T08:48:39;100004.47;;;16.95;80.35
13705;BME280;6924;52.122;9.952;2023-09-19T08:51:10;99987.06;;;17.00;76.41
13705;BME280;6924;52.122;9.952;2023-09-19T08:53:42;99987.97;;;17.04;77.44
13705;BME280;6924;52.122;9.952;2023-09-19T08:56:12;99988.84;;;17.08;77.94
13705;BME280;6924;52.122;9.952;2023-09-19T08:58:44;99981.34;;;17.00;76.49
13705;BME280;6924;52.122;9.952;2023-09-19T09:01:15;99985.94;;;17.05;75.84
13705;BME280;6924;52.122;9.952;2023-09-19T09:03:43;99999.63;;;17.15;77.24
13705;BME280;6924;52.122;9.952;2023-09-19T09:06:14;100000.84;;;17.14;76.84
13705;BME280;6924;52.122;9.952;2023-09-19T09:08:42;100003.34;;;17.16;75.56
13705;BME280;6924;52.122;9.952;2023-09-19T09:11:09;99994.09;;;17.22;77.90
13705;BME280;6924;52.122;9.952;2023-09-19T09:13:36;99994.34;;;17.33;78.36
13705;BME280;6924;52.122;9.952;2023-09-19T09:16:04;99988.69;;;17.37;77.30
13705;BME280;6924;52.122;9.952;2023-09-19T09:18:30;99992.91;;;17.43;77.86
13705;BME280;6924;52.122;9.952;2023-09-19T09:20:57;99998.31;;;17.48;78.01
13705;BME280;6924;52.122;9.952;2023-09-19T09:23:26;99999.31;;;17.55;77.70
13705;BME280;6924;52.122;9.952;2023-09-19T09:25:55;100005.16;;;17.63;76.29
13705;BME280;6924;52.122;9.952;2023-09-19T09:28:26;100016.25;;;17.64;76.03
13705;BME280;6924;52.122;9.952;2023-09-19T09:30:54;100009.38;;;17.69;75.46
13705;BME280;6924;52.122;9.952;2023-09-19T09:33:21;100008.03;;;17.63;75.46
13705;BME280;6924;52.122;9.952;2023-09-19T09:35:50;100010.56;;;17.68;75.62
13705;BME280;6924;52.122;9.952;2023-09-19T09:38:19;100008.63;;;17.72;74.08
13705;BME280;6924;52.122;9.952;2023-09-19T09:40:48;100002.84;;;17.68;74.76
13705;BME280;6924;52.122;9.952;2023-09-19T09:43:29;100006.53;;;17.69;75.96
13705;BME280;6924;52.122;9.952;2023-09-19T09:46:07;100001.41;;;17.59;77.05
13705;BME280;6924;52.122;9.952;2023-09-19T09:48:57;100012.59;;;17.48;75.05
13705;BME280;6924;52.122;9.952;2023-09-19T09:51:45;100023.34;;;17.35;75.96
13705;BME280;6924;52.122;9.952;2023-09-19T09:54:16;100027.13;;;17.39;77.14
13705;BME280;6924;52.122;9.952;2023-09-19T09:56:54;100028.34;;;17.38;76.02
13705;BME280;6924;52.122;9.952;2023-09-19T09:59:52;100015.69;;;17.39;76.83
13705;BME280;6924;52.122;9.952;2023-09-19T10:02:24;100020.56;;;17.39;78.01
13705;BME280;6924;52.122;9.952;2023-09-19T10:04:54;100021.50;;;17.43;77.93
13705;BME280;6924;52.122;9.952;2023-09-19T10:07:40;100018.50;;;17.55;76.40
13705;BME280;6924;52.122;9.952;2023-09-19T10:10:13;100013.66;;;17.59;76.26
13705;BME280;6924;52.122;9.952;2023-09-19T10:12:47;100015.78;;;17.62;74.85
13705;BME280;6924;52.122;9.952;2023-09-19T10:15:15;100014.78;;;17.74;77.92
13705;BME280;6924;52.122;9.952;2023-09-19T10:17:43;100023.50;;;17.81;77.45
13705;BME280;6924;52.122;9.952;2023-09-19T10:20:16;100009.78;;;17.87;77.57
13705;BME280;6924;52.122;9.952;2023-09-19T10:23:05;100015.59;;;17.90;75.29
13705;BME280;6924;52.122;9.952;2023-09-19T10:25:37;100007.50;;;17.96;76.52
13705;BME280;6924;52.122;9.952;2023-09-19T10:28:06;100012.31;;;17.92;73.19
13705;BME280;6924;52.122;9.952;2023-09-19T10:30:37;100009.47;;;17.92;74.99
13705;BME280;6924;52.122;9.952;2023-09-19T10:33:08;99996.50;;;17.98;76.72
13705;BME280;6924;52.122;9.952;2023-09-19T10:35:38;100015.41;;;18.03;75.71
13705;BME280;6924;52.122;9.952;2023-09-19T10:38:06;100014.44;;;17.95;73.61
13705;BME280;6924;52.122;9.952;2023-09-19T10:40:35;100018.03;;;18.11;75.56
13705;BME280;6924;52.122;9.952;2023-09-19T10:43:05;100003.91;;;18.22;78.01
13705;BME280;6924;52.122;9.952;2023-09-19T10:45:33;100020.47;;;18.32;75.81
13705;BME280;6924;52.122;9.952;2023-09-19T10:48:00;100015.56;;;18.33;74.16
13705;BME280;6924;52.122;9.952;2023-09-19T10:50:31;100012.09;;;18.43;72.92
13705;BME280;6924;52.122;9.952;2023-09-19T10:53:00;100008.69;;;18.37;73.04
13705;BME280;6924;52.122;9.952;2023-09-19T10:55:31;100011.47;;;18.34;71.90
13705;BME280;6924;52.122;9.952;2023-09-19T10:58:00;100011.94;;;18.36;74.36
13705;BME280;6924;52.122;9.952;2023-09-19T11:00:50;100007.47;;;18.38;74.68
13705;BME280;6924;52.122;9.952;2023-09-19T11:03:19;100014.63;;;18.48;73.39
13705;BME280;6924;52.122;9.952;2023-09-19T11:06:01;100021.59;;;18.51;71.11
13705;BME280;6924;52.122;9.952;2023-09-19T11:08:54;100014.41;;;18.61;73.19
13705;BME280;6924;52.122;9.952;2023-09-19T11:11:45;100013.66;;;18.64;71.29
13705;BME280;6924;52.122;9.952;2023-09-19T11:14:39;100017.41;;;18.68;71.95
13705;BME280;6924;52.122;9.952;2023-09-19T11:17:34;100011.22;;;18.66;71.28
13705;BME280;6924;52.122;9.952;2023-09-19T11:20:21;100007.56;;;18.65;72.34
13705;BME280;6924;52.122;9.952;2023-09-19T11:23:30;100018.13;;;18.61;70.10
13705;BME280;6924;52.122;9.952;2023-09-19T11:25:57;100006.13;;;18.55;70.10
13705;BME280;6924;52.122;9.952;2023-09-19T11:28:30;100009.44;;;18.57;69.25
13705;BME280;6924;52.122;9.952;2023-09-19T11:30:57;100001.31;;;18.59;70.19
13705;BME280;6924;52.122;9.952;2023-09-19T11:33:26;100002.13;;;18.60;69.41
13705;BME280;6924;52.122;9.952;2023-09-19T11:36:03;100007.22;;;18.70;72.14
13705;BME280;6924;52.122;9.952;2023-09-19T11:38:57;99991.84;;;18.78;71.12
13705;BME280;6924;52.122;9.952;2023-09-19T11:41:40;99997.84;;;18.73;69.67
13705;BME280;6924;52.122;9.952;2023-09-19T11:44:34;99994.06;;;18.66;68.21
13705;BME280;6924;52.122;9.952;2023-09-19T11:47:04;99987.16;;;18.70;70.55
13705;BME280;6924;52.122;9.952;2023-09-19T11:49:33;100004.28;;;18.67;69.23
13705;BME280;6924;52.122;9.952;2023-09-19T11:52:03;99989.06;;;18.63;68.15
13705;BME280;6924;52.122;9.952;2023-09-19T11:54:33;100006.78;;;18.68;69.58
13705;BME280;6924;52.122;9.952;2023-09-19T11:57:05;100007.25;;;18.74;69.42
13705;BME280;6924;52.122;9.952;2023-09-19T11:59:32;100003.56;;;18.73;67.28
13705;BME280;6924;52.122;9.952;2023-09-19T12:02:03;99996.13;;;18.69;68.46
13705;BME280;6924;52.122;9.952;2023-09-19T12:04:36;100003.09;;;18.68;66.62
13705;BME280;6924;52.122;9.952;2023-09-19T12:07:04;99989.06;;;18.63;69.67
13705;BME280;6924;52.122;9.952;2023-09-19T12:09:36;99992.38;;;18.65;68.95
13705;BME280;6924;52.122;9.952;2023-09-19T12:12:02;99993.16;;;18.62;69.29
13705;BME280;6924;52.122;9.952;2023-09-19T12:14:29;99995.91;;;18.54;67.67
13705;BME280;6924;52.122;9.952;2023-09-19T12:16:57;99988.50;;;18.53;66.10
13705;BME280;6924;52.122;9.952;2023-09-19T12:19:26;99983.78;;;18.65;67.97
13705;BME280;6924;52.122;9.952;2023-09-19T12:21:59;99985.50;;;18.69;65.65
13705;BME280;6924;52.122;9.952;2023-09-19T12:24:30;99993.78;;;18.74;65.98
13705;BME280;6924;52.122;9.952;2023-09-19T12:27:01;99989.00;;;18.82;67.24
13705;BME280;6924;52.122;9.952;2023-09-19T12:29:30;99998.50;;;18.86;66.66
13705;BME280;6924;52.122;9.952;2023-09-19T12:31:58;99991.22;;;18.69;65.66
13705;BME280;6924;52.122;9.952;2023-09-19T12:34:30;99995.38;;;18.72;67.75
13705;BME280;6924;52.122;9.952;2023-09-19T12:37:09;99995.38;;;18.72;68.36
13705;BME280;6924;52.122;9.952;2023-09-19T12:39:42;99988.97;;;18.78;68.08
13705;BME280;6924;52.122;9.952;2023-09-19T12:42:10;99988.50;;;18.76;68.29
13705;BME280;6924;52.122;9.952;2023-09-19T12:44:41;99980.78;;;18.81;69.01
13705;BME280;6924;52.122;9.952;2023-09-19T12:47:10;99990.63;;;18.79;69.07
13705;BME280;6924;52.122;9.952;2023-09-19T12:50:07;99985.84;;;18.87;69.84
13705;BME280;6924;52.122;9.952;2023-09-19T12:52:40;99980.09;;;18.87;69.81
13705;BME280;6924;52.122;9.952;2023-09-19T12:55:07;99995.63;;;18.86;68.03
13705;BME280;6924;52.122;9.952;2023-09-19T12:57:36;99994.75;;;18.82;66.62
13705;BME280;6924;52.122;9.952;2023-09-19T13:00:05;99993.09;;;18.81;69.03
13705;BME280;6924;52.122;9.952;2023-09-19T13:02:33;99993.47;;;18.79;67.40
13705;BME280;6924;52.122;9.952;2023-09-19T13:04:59;99997.47;;;18.75;68.47
13705;BME280;6924;52.122;9.952;2023-09-19T13:07:44;99990.84;;;18.71;69.49
13705;BME280;6924;52.122;9.952;2023-09-19T13:10:12;99982.41;;;18.78;67.89
13705;BME280;6924;52.122;9.952;2023-09-19T13:12:42;99981.44;;;18.70;67.33
13705;BME280;6924;52.122;9.952;2023-09-19T13:15:15;99974.88;;;18.70;68.00
13705;BME280;6924;52.122;9.952;2023-09-19T13:17:45;99967.50;;;18.69;69.42
13705;BME280;6924;52.122;9.952;2023-09-19T13:20:23;99973.19;;;18.65;68.25
13705;BME280;6924;52.122;9.952;2023-09-19T13:22:54;99966.66;;;18.68;67.13
13705;BME280;6924;52.122;9.952;2023-09-19T13:25:24;99963.34;;;18.66;67.52